Date,TemperatureHighF,TemperatureAvgF,TemperatureLowF,DewpointHighF,DewpointAvgF,DewpointLowF,HumidityHigh,HumidityAvg,HumidityLow,PressureMaxIn,PressureMinIn,WindSpeedMaxMPH,WindSpeedAvgMPH,GustSpeedMaxMPH,PrecipitationSumIn
2013-1-1,38.5,36.2,33.1,35.6,30.2,19.1,93,79,56,30.24,30.09,9,2,9,0.13
2013-1-2,35.6,31.2,27.3,20.4,17.3,13.2,68,56,43,30.33,30.21,9,2,9,0.00
2013-1-3,42.3,31.5,23.5,19.7,16.3,13.0,78,55,32,30.44,30.30,10,1,10,0.00
2013-1-4,42.3,35.4,29.5,22.7,19.0,14.9,67,52,37,30.47,30.41,11,2,11,0.00
2013-1-5,48.6,36.3,25.2,28.9,21.3,17.3,78,57,34,30.44,30.24,8,1,8,0.00
2013-1-6,44.1,38.7,30.4,28.5,21.4,14.7,58,50,42,30.44,30.15,12,3,12,0.00
2013-1-7,43.3,32.6,24.3,22.3,18.0,15.1,76,56,36,30.50,30.30,6,1,6,0.00
2013-1-8,56.3,39.1,27.5,30.8,23.6,18.1,76,56,30,30.41,30.27,11,1,11,0.00
2013-1-9,60.1,49.1,39.2,44.3,35.2,26.9,75,60,35,30.56,30.27,8,1,8,0.00
2013-1-10,50.0,46.4,42.1,47.8,40.2,30.7,97,80,54,30.56,30.09,6,0,6,0.08
2013-1-11,67.8,58.0,47.5,59.0,50.3,41.5,98,79,43,30.12,29.94,11,2,11,0.50
2013-1-12,67.8,63.0,57.6,66.2,60.9,52.0,98,93,80,30.09,29.85,14,2,14,0.08
2013-1-13,67.8,53.5,34.9,61.4,51.5,31.4,98,93,71,30.27,29.82,18,3,18,2.49
2013-1-14,34.9,30.8,27.7,31.4,19.3,15.4,87,62,48,30.50,30.24,12,4,12,2.37
2013-1-15,34.3,30.3,25.3,30.3,21.0,18.1,90,69,53,30.41,30.12,13,4,13,2.37
2013-1-16,36.9,34.4,32.5,30.2,29.2,0.0,90,81,74,30.21,30.06,8,2,10,2.37
2013-1-17,46.9,37.9,33.6,28.8,23.6,15.6,81,59,30,30.47,30.18,18,3,18,0.21
2013-1-18,46.0,35.9,27.0,20.1,16.9,13.8,64,47,30,30.62,30.36,12,2,12,0.00
2013-1-19,57.6,47.6,38.8,23.2,19.4,15.3,46,34,19,30.36,30.03,24,5,24,9.88
2013-1-20,48.6,40.7,31.1,26.3,9.5,-1.1,49,28,20,30.33,30.06,12,3,12,0.00
2013-1-21,32.7,28.0,18.5,8.7,-0.1,-9.9,43,30,21,30.39,30.21,15,4,15,0.00
2013-1-22,26.4,19.5,13.3,-5.5,-9.2,-13.0,31,27,22,30.50,30.36,12,3,12,0.00
2013-1-23,39.9,28.4,18.1,11.6,1.9,-8.2,40,32,23,30.44,30.15,8,2,8,0.00
2013-1-24,33.6,27.4,22.1,12.3,-2.0,-8.5,42,28,20,30.62,30.21,17,4,17,0.00
2013-1-25,32.4,28.2,25.5,19.0,9.4,-6.2,70,47,23,30.44,30.12,10,2,10,0.00
2013-1-26,38.7,31.2,24.4,22.1,15.3,9.5,78,54,32,30.47,30.24,10,1,10,0.00
2013-1-27,45.9,36.0,27.0,42.8,20.9,10.4,89,55,39,30.44,30.18,10,1,10,0.12
2013-1-28,57.0,52.0,46.0,54.6,46.8,37.1,98,83,60,30.24,30.12,15,4,15,0.21
2013-1-29,66.4,61.3,54.5,57.3,54.0,50.4,93,77,68,30.15,29.62,22,5,22,0.00
2013-1-30,68.9,54.3,35.1,59.2,46.7,17.4,98,77,48,29.79,29.44,24,5,24,0.62
2013-1-31,38.5,33.0,21.2,26.1,14.5,2.4,78,47,33,30.21,29.79,20,5,20,0.00
2013-2-1,25.3,18.9,12.0,4.6,-1.4,-7.8,47,40,34,30.53,30.21,19,3,19,0.00
2013-2-2,38.8,31.3,21.7,23.3,17.3,4.2,75,56,42,30.41,30.06,10,2,10,0.08
2013-2-3,34.2,30.9,25.2,23.9,17.1,10.6,67,56,44,30.21,30.00,12,2,12,0.00
2013-2-4,48.7,34.8,23.2,41.8,24.1,13.6,92,66,36,30.21,29.88,12,2,12,0.05
2013-2-5,52.2,44.0,36.5,39.5,31.1,24.5,86,63,37,30.09,29.94,9,2,9,0.00
2013-2-6,45.9,38.7,31.3,29.2,24.5,21.3,81,57,40,30.33,30.09,12,1,12,0.00
2013-2-7,66.7,48.8,36.3,33.9,28.1,23.6,69,48,24,30.27,29.88,12,2,12,0.00
2013-2-8,55.4,41.3,36.1,46.2,28.5,20.1,84,61,45,30.41,29.91,16,4,16,0.08
2013-2-9,48.2,38.9,30.4,21.6,17.5,13.4,63,43,27,30.47,30.24,10,2,10,0.00
2013-2-10,58.1,47.4,38.7,49.7,33.2,16.4,85,60,32,30.27,29.85,14,3,14,0.12
2013-2-11,55.6,50.1,40.1,51.8,28.1,15.4,88,46,23,30.18,29.85,14,4,14,15.22
2013-2-12,54.7,41.9,31.5,25.1,19.4,14.3,68,43,24,30.24,30.03,8,1,8,0.04
2013-2-13,45.1,39.3,34.5,34.2,24.7,18.8,75,57,38,30.03,29.82,13,3,13,0.08
2013-2-14,58.5,45.5,35.4,34.2,28.8,20.9,84,56,26,30.06,29.94,12,3,12,0.08
2013-2-15,47.8,40.9,31.1,28.2,19.7,8.3,59,43,28,30.27,30.06,13,3,13,0.08
2013-2-16,37.0,30.6,25.9,13.3,6.1,-3.4,55,37,22,30.24,30.12,16,3,16,0.08
2013-2-17,40.8,31.1,22.8,9.5,5.2,1.2,48,34,21,30.33,30.18,10,2,10,0.08
2013-2-18,63.9,46.1,30.0,40.5,18.5,5.1,75,35,18,30.24,29.82,20,4,24,0.13
2013-2-19,48.2,38.3,26.4,43.7,19.8,6.1,89,50,26,30.27,29.76,22,5,22,0.16
2013-2-20,35.6,29.1,22.8,7.1,5.0,2.6,46,36,27,30.39,30.24,11,3,11,0.08
2013-2-21,40.5,31.3,23.2,28.2,12.2,4.7,79,46,29,30.39,30.06,15,3,15,0.09
2013-2-22,52.0,42.2,34.0,42.7,33.5,27.9,97,73,47,30.06,29.91,10,2,10,0.08
2013-2-23,48.2,38.9,32.2,31.6,19.6,14.3,69,48,27,30.09,29.97,9,2,9,0.00
2013-2-24,49.5,38.0,27.7,17.8,15.5,13.1,59,41,26,30.21,29.97,8,2,8,0.00
2013-2-25,53.8,41.8,30.4,18.9,15.1,0.0,61,36,20,30.18,29.85,14,3,14,0.00
2013-2-26,52.0,45.5,41.2,49.4,35.7,13.7,93,72,28,29.85,29.41,15,2,15,0.50
2013-2-27,43.3,39.7,35.6,37.0,30.7,21.3,83,71,46,29.85,29.62,12,4,12,0.04
2013-2-28,39.7,37.3,35.1,31.3,29.1,26.1,79,72,65,30.06,29.82,10,3,10,0.00
2013-3-1,42.1,38.3,35.6,31.9,29.6,25.6,82,71,54,30.09,30.00,7,2,10,0.04
2013-3-2,36.1,33.1,31.6,30.9,18.1,13.5,81,54,43,30.18,30.06,12,4,12,0.04
2013-3-3,41.9,35.2,29.3,19.5,9.8,4.2,60,36,23,30.21,30.12,10,2,10,0.00
2013-3-4,46.8,37.1,23.9,16.9,12.4,8.4,64,38,22,30.24,29.97,13,2,13,0.00
2013-3-5,48.4,41.7,32.5,45.3,31.3,15.5,92,70,31,29.97,29.68,14,2,18,0.29
2013-3-6,127.9,34.6,32.5,27.3,24.4,21.9,79,66,55,30.36,29.85,16,5,16,0.00
2013-3-7,41.2,36.9,34.0,26.2,22.3,17.5,70,56,43,30.47,30.33,8,2,10,0.00
2013-3-8,51.4,41.6,30.6,23.3,17.9,14.8,67,40,26,30.50,30.39,10,2,10,0.00
2013-3-9,64.9,47.1,34.7,24.3,20.7,17.3,54,38,18,30.39,30.06,10,2,10,0.00
2013-3-10,73.0,61.6,51.4,38.0,22.1,16.1,49,23,14,30.09,29.85,18,4,18,0.04
2013-3-11,55.8,50.1,40.3,53.8,41.1,24.9,95,72,44,30.03,29.74,15,3,15,0.92
2013-3-12,52.7,43.3,37.6,25.9,19.7,11.4,56,40,26,30.18,30.00,14,4,14,0.00
2013-3-13,39.9,35.0,29.1,24.5,12.3,5.7,56,39,26,30.44,30.15,22,4,22,0.00
2013-3-14,50.9,37.6,25.2,28.7,15.5,7.9,69,44,19,30.44,30.24,10,2,10,0.00
2013-3-15,66.4,49.0,32.5,39.1,29.3,26.5,83,51,24,30.30,29.79,10,1,10,0.00
2013-3-16,73.9,61.0,43.5,40.8,35.9,29.8,74,41,22,30.06,29.71,13,5,15,0.00
2013-3-17,44.6,38.9,35.2,39.3,35.6,32.3,98,88,70,30.18,29.94,11,3,11,1.03
2013-3-18,54.5,44.4,37.6,52.5,40.5,31.4,98,87,63,29.97,29.71,12,2,12,8.50
2013-3-19,51.3,41.7,32.9,35.0,15.7,3.3,84,40,19,30.21,29.97,17,3,17,0.67
2013-3-20,45.9,35.6,27.1,16.7,8.0,-1.4,55,33,20,30.21,30.06,17,3,17,0.67
2013-3-21,38.3,29.1,23.4,6.3,2.2,-1.4,41,32,21,30.15,30.06,13,2,13,0.67
2013-3-22,50.5,42.1,27.0,10.7,6.5,2.8,41,23,19,30.15,30.06,8,2,8,0.00
2013-3-23,58.8,48.6,40.6,16.4,11.2,5.6,29,22,17,30.09,29.88,18,2,18,0.00
2013-3-24,48.9,41.3,37.6,38.8,28.9,10.1,91,66,21,29.91,29.47,13,3,13,0.42
2013-3-25,40.3,36.2,34.0,33.3,27.6,22.7,90,71,52,30.09,29.53,15,4,15,0.04
2013-3-26,45.3,38.7,35.1,29.7,22.6,12.9,79,55,29,30.36,30.06,12,3,13,0.00
2013-3-27,52.9,40.7,29.8,22.2,16.0,10.1,65,39,21,30.41,30.33,9,2,9,0.00
2013-3-28,55.9,41.9,29.1,22.5,15.3,0.0,67,37,17,30.44,30.33,11,1,11,0.00
2013-3-29,63.9,47.3,34.9,34.1,24.6,15.3,66,43,24,30.39,30.24,8,1,8,0.00
2013-3-30,66.6,50.1,36.9,41.5,31.8,0.0,92,57,18,30.30,30.00,12,2,12,0.00
2013-3-31,64.9,54.9,49.8,49.3,41.1,31.9,91,63,31,30.00,29.88,8,2,8,0.00
2013-4-1,56.1,48.6,40.6,38.0,20.4,4.7,71,36,17,30.21,29.91,14,4,14,0.00
2013-4-2,54.7,42.7,30.9,16.4,10.4,0.0,50,28,18,30.36,30.18,12,2,12,0.04
2013-4-3,56.3,43.9,31.1,15.6,8.9,0.0,48,25,17,30.44,30.30,17,2,17,0.00
2013-4-4,58.5,48.7,40.6,15.9,8.9,3.8,34,20,17,30.33,30.06,9,2,9,0.00
2013-4-5,69.6,52.2,35.6,25.6,19.0,10.2,56,31,15,30.18,30.06,13,2,13,22.23
2013-4-6,77.5,58.9,42.8,26.3,19.9,9.7,41,24,13,30.24,29.94,13,3,13,0.00
2013-4-7,77.7,68.5,61.7,38.8,31.2,20.6,34,25,18,30.03,29.94,13,4,13,0.00
2013-4-8,77.0,67.2,55.9,46.9,42.8,36.6,68,43,28,30.03,29.94,15,3,15,0.00
2013-4-9,86.2,71.0,60.6,51.2,46.4,39.1,64,44,20,30.12,29.97,19,3,19,0.00
2013-4-10,88.7,76.3,65.5,53.4,47.8,41.6,60,39,20,30.06,29.82,14,4,14,0.00
2013-4-11,75.7,67.0,57.7,65.3,56.7,42.5,98,75,31,29.85,29.59,13,2,13,0.91
2013-4-12,57.6,50.3,41.7,56.7,34.6,24.0,97,59,28,30.03,29.68,13,3,13,0.04
2013-4-13,67.6,52.1,38.5,31.2,25.3,18.5,69,39,17,30.15,30.03,10,2,10,0.04
2013-4-14,80.1,56.2,44.1,38.4,32.4,24.2,74,47,15,30.09,29.91,10,1,10,0.00
2013-4-15,76.8,71.2,63.0,46.2,43.3,29.5,54,37,25,30.06,29.94,12,3,12,0.00
2013-4-16,87.1,70.5,59.2,62.4,54.3,45.7,95,59,30,30.21,30.00,18,2,18,0.38
2013-4-17,81.9,67.8,61.3,65.0,61.8,56.7,98,83,44,30.21,30.00,12,1,12,0.00
2013-4-18,87.8,74.8,63.5,61.6,49.7,35.0,88,49,19,30.00,29.65,18,4,18,0.00
2013-4-19,75.0,50.4,42.4,61.8,33.7,19.8,88,55,29,30.12,29.59,12,3,12,0.82
2013-4-20,63.0,50.0,38.3,32.7,20.9,8.9,73,37,16,30.44,30.12,10,2,10,0.00
2013-4-21,66.6,52.7,40.3,22.3,18.0,12.5,41,27,15,30.53,30.36,12,2,12,0.00
2013-4-22,79.0,59.5,41.2,32.9,26.2,20.7,61,31,15,30.39,30.15,8,1,229,0.00
2013-4-23,74.3,62.9,48.7,44.6,39.3,31.2,72,44,25,30.18,29.94,13,2,13,0.00
2013-4-24,68.0,54.5,40.5,51.3,39.1,27.2,89,58,38,30.33,29.85,14,2,14,11.74
2013-4-25,69.4,52.0,36.7,38.3,29.0,17.7,93,49,17,30.39,29.94,10,1,10,0.00
2013-4-26,69.1,53.9,40.8,36.6,26.0,16.1,73,38,15,30.03,29.88,8,1,8,0.00
2013-4-27,63.7,57.2,53.2,55.0,42.8,30.1,93,60,37,29.94,29.56,11,1,11,0.00
2013-4-28,70.0,60.8,55.6,61.5,54.4,47.5,98,81,55,29.59,29.47,10,1,10,0.04
2013-4-29,73.0,63.2,57.7,54.9,48.9,40.2,89,64,32,29.65,29.53,6,1,6,0.04
2013-4-30,86.5,68.1,50.2,54.8,43.9,28.4,95,51,13,29.65,29.53,9,1,9,0.00
2013-5-1,89.1,72.2,55.8,56.7,45.1,35.3,86,44,18,29.74,29.62,8,1,8,0.00
2013-5-2,82.0,71.5,61.7,50.0,45.1,39.2,60,40,23,29.79,29.65,6,1,6,0.00
2013-5-3,83.3,70.2,62.8,60.3,48.7,37.3,91,50,21,29.68,29.47,14,2,14,0.21
2013-5-4,62.8,58.6,55.0,60.4,51.3,39.2,98,79,42,29.59,29.47,11,1,11,0.83
2013-5-5,57.2,55.2,53.2,55.7,52.9,48.5,98,92,80,29.59,29.47,12,1,12,0.62
2013-5-6,73.2,64.7,54.9,55.6,49.7,41.1,94,61,33,29.50,29.44,10,2,10,0.04
2013-5-7,59.4,59.4,59.4,57.9,57.9,57.9,95,95,95,29.56,29.56,4,3,5,0.00
2013-5-8,74.1,69.1,59.4,57.9,46.2,40.7,95,46,30,29.62,29.47,4,1,5,0.00
2013-5-9,88.7,71.2,59.2,59.3,51.1,38.2,90,55,18,29.65,29.53,6,1,6,0.00
2013-5-10,68.9,66.9,65.3,65.4,58.3,53.4,96,75,58,29.56,29.47,7,1,7,0.42
2013-5-13,73.6,63.9,43.5,66.3,23.7,17.1,96,26,13,29.82,29.47,12,2,12,0.12
2013-5-18,85.3,76.6,69.4,62.3,58.3,54.2,78,54,38,30.09,30.00,4,1,4,0.00
2013-5-19,86.7,71.4,64.2,67.9,63.8,57.2,98,80,39,30.06,29.97,4,0,4,0.00
2013-5-20,91.9,78.8,67.3,66.7,60.5,51.8,92,58,28,30.06,29.94,6,2,6,0.00
2013-5-21,90.3,77.5,70.3,62.8,56.9,43.8,72,52,23,30.03,29.88,10,2,10,0.00
2013-5-22,84.6,72.0,66.7,67.0,58.5,50.5,92,65,34,29.91,29.85,8,2,8,0.08
2013-5-23,74.1,67.0,57.9,64.5,55.1,44.1,98,69,37,30.18,29.88,13,2,13,0.04
2013-5-24,73.8,61.6,52.7,44.7,34.9,18.2,70,42,14,30.41,30.18,15,4,15,0.00
2013-5-25,75.9,62.3,48.7,46.7,33.9,20.2,82,40,15,30.44,30.24,8,1,8,0.00
2013-5-26,79.7,67.0,57.9,50.6,42.3,34.2,75,44,21,30.39,30.18,8,1,8,0.00
2013-5-27,93.0,76.6,61.7,50.1,43.5,32.1,61,35,12,30.21,30.00,9,2,9,0.00
2013-5-28,93.0,80.4,72.3,55.3,46.5,39.9,46,32,17,30.09,29.97,10,3,10,0.00
2013-5-29,95.7,75.2,68.0,57.7,52.8,40.5,62,48,17,30.18,30.03,7,1,7,0.00
2013-5-30,76.6,75.5,74.5,56.4,55.6,54.8,53,50,47,30.09,30.06,6,3,6,0.00
2013-5-31,74.5,72.5,65.8,71.3,63.4,54.2,95,74,53,30.03,29.91,11,3,12,0.04
2013-6-1,73.4,67.8,66.6,65.9,65.2,64.2,95,91,77,29.97,29.94,4,0,4,0.00
2013-6-2,73.0,65.4,63.0,66.2,53.9,49.2,95,66,43,30.06,29.97,9,3,9,0.00
2013-6-3,62.4,58.5,57.0,52.3,49.6,44.1,83,73,51,30.15,30.09,2,0,2,0.00
2013-6-4,68.7,65.1,62.8,47.6,45.5,44.1,55,49,42,30.09,30.06,3,0,4,0.00
2013-6-5,73.2,71.1,66.7,67.8,62.3,44.8,94,75,45,30.09,29.82,3,0,4,0.00
2013-6-6,78.8,67.7,66.0,61.4,60.3,51.1,82,77,38,29.88,29.82,4,1,8,0.04
2013-6-7,72.3,69.9,67.6,59.2,52.1,48.4,69,54,43,29.97,29.85,4,0,6,0.00
2013-6-8,76.3,67.7,66.4,61.4,59.1,48.8,83,74,38,30.09,29.91,0,0,2,0.00
2013-6-9,70.2,67.6,67.1,67.1,66.5,65.5,98,96,88,29.97,29.88,5,0,5,0.46
2013-7-13,87.6,82.0,74.5,56.1,52.0,47.3,48,36,29,30.15,30.06,10,2,10,4.60
2013-7-14,95.5,79.9,70.0,74.5,61.6,50.5,93,58,26,30.27,30.12,8,1,8,0.13
2013-7-15,97.2,82.7,72.5,74.5,64.7,50.7,98,62,23,30.36,30.24,6,1,6,0.00
2013-7-16,96.4,84.2,73.6,72.8,63.0,51.6,90,54,24,30.39,30.30,8,1,8,0.00
2013-7-17,98.4,83.7,75.6,77.7,66.7,50.8,94,62,22,30.41,30.24,8,1,8,0.20
2013-7-18,95.5,83.7,76.1,80.8,72.4,56.2,98,73,30,30.27,30.09,6,0,6,0.17
2013-7-19,97.0,84.6,74.3,69.9,63.8,54.3,83,53,25,30.12,29.94,6,1,6,0.00
2013-7-20,97.0,83.5,75.6,72.0,64.0,51.0,84,56,26,30.03,29.91,12,1,12,0.00
2013-7-21,92.7,79.4,70.9,70.0,63.4,52.1,93,62,28,30.03,29.88,15,1,15,0.25
2013-7-22,85.5,75.8,71.4,77.4,71.6,66.4,98,88,60,30.00,29.82,4,0,4,1.37
2013-7-23,94.3,80.8,71.6,76.4,68.5,58.8,98,71,35,29.94,29.79,6,1,6,0.00
2013-7-24,83.3,74.1,65.7,65.7,50.3,41.4,67,45,24,30.03,29.88,14,4,14,0.00
2013-7-25,84.6,73.3,63.9,54.1,47.0,37.2,70,42,20,30.15,30.00,10,2,10,0.00
2013-7-26,88.2,75.1,63.1,60.9,52.3,42.5,85,50,22,30.18,30.00,6,1,6,0.00
2013-7-27,84.2,73.1,68.4,66.6,56.8,42.4,91,60,29,30.03,29.94,8,1,8,0.00
2013-7-28,83.3,69.6,57.0,50.6,41.2,32.6,74,39,19,30.15,30.00,9,1,9,0.00
2013-7-29,86.9,72.3,59.4,55.2,47.8,37.8,81,47,19,30.24,30.15,6,1,6,0.00
2013-7-30,85.1,71.5,65.7,67.4,58.1,48.3,95,66,30,30.30,30.15,6,0,6,0.08
2013-7-31,79.3,73.4,66.6,67.7,64.7,61.5,96,75,56,30.18,30.00,4,1,6,0.04
2013-8-1,88.7,76.3,68.7,71.4,57.9,38.8,98,62,19,30.09,30.00,12,2,12,0.00
2013-8-2,90.0,77.0,64.9,64.2,54.2,43.2,90,50,21,30.12,30.00,6,1,6,0.00
2013-8-3,90.0,79.5,72.3,63.8,58.7,54.3,67,50,34,30.12,30.00,11,1,11,0.00
2013-8-4,83.5,74.8,67.1,61.9,43.1,33.0,68,35,19,30.21,30.06,12,3,12,0.00
2013-8-5,89.2,74.9,61.5,57.4,45.6,34.5,82,41,15,30.18,30.00,5,1,8,0.00
2013-8-6,87.6,78.8,72.0,69.6,57.8,45.4,78,50,35,30.03,29.94,5,1,5,0.00
2013-8-7,88.2,79.5,73.2,75.3,69.2,63.6,98,73,47,30.03,29.94,172,1,172,0.00
2013-8-8,93.4,81.8,73.9,73.8,67.8,58.0,96,66,33,30.03,29.94,5,1,5,0.00
2013-8-9,87.8,78.4,75.4,76.9,73.6,65.5,98,86,51,30.09,29.94,6,0,6,1.04
2013-8-10,82.8,76.9,73.6,78.4,74.5,69.8,98,93,67,30.18,30.06,3,0,4,0.50
2013-8-11,91.2,80.3,73.4,75.9,65.3,52.5,98,67,29,30.18,30.06,10,1,10,0.00
2013-8-12,89.4,74.7,69.6,74.6,68.5,58.1,98,83,41,30.18,29.94,12,0,12,0.75
2013-8-13,83.7,74.5,67.5,77.0,62.1,41.9,98,71,33,30.12,29.94,16,2,16,0.33
2013-8-14,78.8,67.6,58.1,49.2,41.1,32.3,69,41,20,30.24,30.12,13,3,13,0.00
2013-8-15,80.8,68.2,56.8,51.1,44.1,34.4,81,46,21,30.21,30.09,12,2,12,0.00
2013-8-16,84.6,72.0,60.1,56.0,46.9,37.6,82,46,20,30.21,30.12,10,2,10,0.00
2013-8-17,86.2,75.2,67.3,53.5,49.0,43.6,55,41,28,30.21,30.12,8,2,8,0.00
2013-8-18,87.3,75.1,64.9,61.8,53.9,39.7,85,52,20,30.21,30.12,8,1,8,0.00
2013-8-19,89.6,77.1,67.5,67.8,57.1,45.5,93,56,22,30.21,30.09,58,1,58,0.00
2013-8-20,88.2,75.9,68.4,69.6,62.3,51.8,82,64,35,30.21,30.12,6,1,6,0.00
2013-8-21,92.5,79.0,69.1,72.1,64.2,51.9,98,66,28,30.24,30.09,8,1,8,0.00
2013-8-22,92.3,80.8,71.8,72.8,62.1,45.7,94,59,21,30.18,30.06,12,1,12,0.00
2013-8-23,90.0,79.8,72.3,68.1,58.0,42.2,85,53,20,30.15,30.06,115,2,115,0.00
2013-8-24,91.8,79.0,68.0,62.8,49.3,30.3,83,43,12,30.30,30.15,9,1,9,0.00
2013-8-25,92.1,77.7,65.1,61.4,52.8,40.5,83,47,17,30.41,30.24,7,1,7,0.00
2013-8-26,92.3,80.5,70.3,64.9,59.7,49.1,81,53,24,30.33,30.12,6,1,6,0.00
2013-8-27,92.8,82.2,73.8,69.7,64.1,55.8,84,57,30,30.18,30.06,5,0,5,0.00
2013-8-28,96.6,84.3,74.7,70.4,58.6,42.2,86,49,16,30.09,29.97,10,0,10,0.00
2013-8-29,94.1,84.2,75.6,69.4,56.3,42.6,72,42,18,30.09,30.00,11,1,11,0.00
2013-8-30,95.4,83.1,72.3,67.8,58.4,44.6,81,48,18,30.06,29.88,10,1,10,0.00
2013-8-31,97.9,83.0,55.9,69.6,62.8,43.1,91,55,26,30.00,29.82,10,2,12,0.29
2013-9-1,90.0,77.7,70.0,73.8,67.3,58.2,98,75,36,29.97,29.79,8,1,8,0.29
2013-9-2,92.3,77.3,71.2,74.4,67.8,52.7,95,74,30,29.97,29.85,15,1,15,0.25
2013-9-3,82.0,73.0,66.4,62.4,49.4,36.0,72,47,21,30.12,29.94,9,2,13,0.00
2013-9-4,84.2,71.4,61.0,59.0,49.8,38.4,87,52,21,30.21,30.12,8,1,8,0.00
2013-9-5,86.9,74.6,64.4,63.6,52.7,38.5,92,54,19,30.30,30.18,8,1,8,0.00
2013-9-6,87.6,75.6,66.6,62.1,52.0,40.6,79,48,21,30.27,30.12,6,1,6,0.00
2013-9-7,90.0,76.7,65.7,63.1,56.3,47.2,88,54,24,30.15,30.00,5,1,5,0.00
2013-9-8,92.3,79.2,72.0,72.5,60.8,49.5,96,58,27,30.06,30.00,5,0,5,4.66
2013-9-9,94.3,80.8,70.0,68.8,61.0,49.9,92,56,24,30.12,30.00,6,1,6,0.00
2013-9-10,95.2,82.2,74.1,68.0,62.0,52.7,78,54,27,30.21,30.06,11,1,11,0.04
2013-9-11,91.6,81.8,72.9,69.2,63.6,55.3,86,58,31,30.24,30.12,6,1,6,0.00
2013-9-12,82.0,76.1,70.5,68.9,61.9,49.6,85,63,38,30.12,29.94,10,1,10,0.00
2013-9-13,73.2,67.5,60.4,57.8,37.6,23.1,65,36,16,30.15,30.00,16,4,16,0.00
2013-9-14,73.8,63.0,53.4,41.2,34.3,23.6,62,37,16,30.27,30.12,9,1,630,0.00
2013-9-15,82.0,66.4,34.2,50.4,43.4,0.0,78,48,21,30.24,30.06,6,1,6,4.95
2013-9-16,76.6,70.7,66.6,56.5,50.7,45.1,65,50,34,30.30,30.12,10,2,10,0.00
2013-9-17,78.6,69.3,58.8,50.8,41.6,33.5,66,40,20,30.36,30.21,10,1,10,0.00
2013-9-18,80.6,71.2,63.9,63.3,56.0,46.2,79,60,42,30.21,30.12,4,1,4,0.00
2013-9-19,85.3,74.3,67.1,68.4,63.3,55.9,98,72,37,30.21,30.03,6,1,6,0.00
2013-9-20,88.7,75.6,69.6,71.4,63.2,52.5,98,69,30,30.06,29.88,7,1,7,0.87
2013-9-21,74.5,67.2,59.4,69.0,52.2,31.8,98,66,22,29.94,29.79,12,2,12,0.58
2013-9-22,72.0,62.8,54.0,50.8,40.5,30.8,81,48,23,30.09,29.94,10,2,10,0.00
2013-9-23,73.8,62.8,52.3,49.0,41.7,32.1,84,51,22,30.15,30.06,8,1,8,0.00
2013-9-24,81.0,67.1,56.7,55.8,46.9,39.8,68,50,30,30.12,29.94,6,1,6,0.00
2013-9-25,78.6,71.0,65.7,59.2,53.2,0.0,79,55,32,29.97,29.88,11,1,11,0.00
2013-9-26,78.4,66.0,58.5,56.5,49.0,26.4,86,60,15,30.12,29.94,8,1,8,0.00
2013-9-27,81.5,68.9,34.2,55.1,45.8,0.0,89,50,19,30.27,30.12,6,1,6,0.00
2013-9-28,84.0,68.9,57.7,56.4,49.9,37.4,89,56,21,30.27,30.09,6,1,6,0.00
2013-9-29,68.2,64.2,60.3,62.8,57.7,50.9,93,80,54,30.15,30.06,5,0,5,0.00
2013-9-30,77.9,68.9,63.9,65.3,58.6,50.9,98,73,41,30.12,30.00,5,0,5,0.00
2013-10-1,79.9,69.2,61.2,63.5,58.1,49.8,97,72,37,30.18,30.06,5,0,5,0.00
2013-10-2,82.0,71.9,65.3,70.5,66.7,62.0,97,85,55,30.21,30.09,6,0,6,0.00
2013-10-3,84.6,74.5,69.4,73.5,65.5,52.7,98,77,34,30.18,30.06,8,1,8,0.08
2013-10-4,86.7,73.9,66.9,70.3,64.0,54.5,98,75,34,30.15,30.06,6,1,6,0.34
2013-10-5,73.0,70.9,68.9,72.4,70.3,68.3,98,98,98,30.12,30.00,3,0,3,3.36
2013-10-6,71.2,65.0,56.8,70.7,64.2,45.8,98,97,67,30.03,29.82,2,0,2,1.53
2013-10-7,65.1,56.7,49.8,49.6,42.1,29.7,96,62,27,30.24,29.94,115,0,687,0.00
2013-10-8,68.9,57.9,48.0,51.3,41.2,29.9,97,60,24,30.36,30.21,5,0,8,0.00
2013-10-9,73.8,60.4,49.3,53.4,45.5,36.5,93,62,26,30.30,30.18,57,0,57,0.00
2013-10-10,74.3,62.1,52.5,54.1,46.0,32.4,95,63,22,30.27,30.15,8,0,8,0.00
2013-10-11,75.9,63.3,52.7,53.2,46.2,34.6,93,60,23,30.21,30.06,4,0,4,0.00
2013-10-12,79.0,65.9,54.0,57.0,50.7,39.6,93,63,25,30.18,30.06,6,0,6,0.00
2013-10-13,75.7,67.8,62.6,60.6,49.3,29.2,89,56,26,30.36,30.18,11,2,11,0.00
2013-10-14,73.4,62.3,52.7,49.3,36.5,29.6,68,40,24,30.42,30.21,7,2,7,2.99
2013-10-15,73.6,64.9,57.9,61.2,54.9,48.8,88,71,45,30.24,30.00,6,1,6,0.00
2013-10-16,66.6,62.4,54.7,60.6,48.8,42.5,84,62,45,30.06,30.00,4,0,4,0.00
2013-10-17,61.5,54.7,49.1,50.7,42.4,35.1,87,65,38,30.09,30.00,8,1,8,0.05
2013-10-18,68.5,54.8,44.8,50.5,41.9,32.3,96,67,29,30.15,30.00,6,1,6,0.00
2013-10-19,54.5,51.1,43.7,51.8,44.2,34.6,93,78,49,30.12,29.94,13,0,13,0.16
2013-10-20,64.8,50.9,40.8,44.9,36.8,28.3,96,64,27,30.15,30.06,6,1,6,0.00
2013-10-21,69.1,55.2,43.2,44.1,37.0,27.9,89,56,23,30.09,29.97,11,1,11,0.00
2013-10-22,58.6,50.8,40.8,39.0,29.6,0.0,84,48,22,30.15,29.88,13,1,13,0.00
2013-10-23,51.4,47.9,42.8,39.5,28.4,19.2,64,48,29,30.15,29.82,15,2,15,0.00
2013-10-24,50.2,43.8,37.2,28.6,23.9,14.3,54,45,32,30.39,30.15,10,1,10,0.00
2013-10-25,50.4,38.1,32.7,27.5,22.5,13.4,75,55,24,30.53,30.36,7,0,7,0.00
2013-10-26,57.9,46.2,33.6,31.7,24.9,20.9,71,46,25,30.39,30.03,8,2,8,0.00
2013-10-27,61.7,47.8,37.4,37.8,29.7,18.2,85,55,19,30.21,30.09,4,0,4,3.20
2013-10-28,64.4,51.1,42.3,37.4,31.4,21.4,76,51,21,30.33,30.15,5,0,5,5.03
2013-10-29,57.7,50.9,42.3,56.0,44.9,35.2,97,80,66,30.41,30.24,4,0,4,0.04
2013-10-30,70.7,63.4,56.8,68.7,61.7,0.0,98,94,77,30.24,30.06,115,0,115,1.20
2013-10-31,66.7,65.0,60.3,66.2,58.9,51.5,98,82,60,30.09,29.47,8,3,14,0.46
2013-11-1,68.5,59.5,52.7,57.1,43.2,28.4,94,60,23,29.85,29.59,7,1,7,0.00
2013-11-2,64.0,51.6,44.6,44.3,36.5,27.5,86,58,27,30.21,29.85,10,0,12,0.08
2013-11-3,58.1,47.6,38.7,38.2,30.1,21.7,87,54,25,30.41,30.18,6,0,6,0.00
2013-11-4,63.9,52.7,43.3,38.6,33.1,26.5,74,50,25,30.44,30.33,9,1,9,0.00
2013-11-5,64.4,56.4,50.5,40.3,35.4,28.3,65,47,26,30.44,30.27,5,0,5,0.00
2013-11-6,68.5,57.5,47.3,60.1,47.8,36.5,94,72,41,30.30,30.06,13,1,13,0.13
2013-11-7,52.2,45.4,40.3,42.5,25.9,9.8,87,52,19,30.41,30.15,13,2,13,0.04
2013-11-8,55.8,44.2,34.0,29.7,21.5,13.7,76,43,20,30.44,30.30,6,0,6,0.00
2013-11-9,63.9,50.3,35.4,29.0,22.9,17.4,71,38,18,30.33,30.12,11,2,11,0.00
2013-11-10,57.4,49.1,38.5,34.7,21.7,9.1,69,37,17,30.41,30.21,10,2,10,0.00
2013-11-11,65.1,49.4,34.5,38.4,22.9,13.7,74,42,15,30.39,30.15,15,1,15,14.69
2013-11-12,51.3,36.4,32.2,35.5,13.1,1.4,78,41,21,30.71,30.27,21,6,21,0.04
2013-11-13,44.1,34.5,26.6,17.6,13.2,7.4,66,43,23,30.74,30.47,6,1,6,12.66
2013-11-14,56.7,42.2,29.8,16.8,11.7,5.4,54,32,17,30.50,30.24,9,2,9,0.00
2013-11-15,57.6,48.2,38.7,43.4,21.8,4.5,80,39,20,30.27,30.12,6,1,6,0.09
2013-11-16,63.3,56.3,48.6,54.4,49.5,42.3,89,78,69,30.18,29.94,10,2,10,0.00
2013-11-17,67.8,62.2,0.0,66.6,56.6,0.0,98,84,37,29.97,29.65,13,3,115,0.25
2013-11-18,58.1,49.1,0.0,41.2,28.2,0.0,74,46,25,30.06,29.12,20,1,20,0.00
2013-11-19,47.5,40.4,33.1,24.2,19.2,15.1,69,44,28,29.20,27.70,10,2,229,1.32
2013-11-20,45.9,35.7,31.8,23.1,20.1,0.0,67,53,39,27.73,27.11,7,1,7,0.00
2013-11-21,65.3,55.7,0.0,54.8,41.4,0.0,96,62,34,29.88,29.74,5,0,6,0.04
2013-11-22,59.0,51.6,40.3,58.4,43.3,25.1,98,75,49,29.97,29.76,13,4,15,0.04
2013-11-23,47.8,35.8,25.5,25.4,9.2,-3.8,57,34,19,30.18,29.94,14,5,18,0.00
2013-11-24,32.0,27.2,21.7,7.1,1.1,-4.1,43,32,23,30.30,30.03,11,2,11,0.00
2013-11-25,43.5,36.6,28.0,28.6,10.7,3.1,76,37,20,30.03,29.76,9,2,10,0.00
2013-11-26,38.1,36.8,34.3,31.4,25.9,14.7,79,65,42,29.79,29.53,13,3,15,0.09
2013-11-27,34.3,29.2,22.8,15.0,7.1,1.8,48,39,30,29.94,29.59,13,3,15,0.00
2013-11-28,40.5,30.4,21.6,12.0,6.7,1.6,53,38,21,30.06,29.88,10,2,10,0.00
2013-11-29,46.0,34.4,24.4,17.7,14.4,10.2,68,45,27,30.21,29.74,6,0,6,0.00
2013-11-30,56.7,43.7,28.2,24.3,17.0,10.3,71,37,18,30.06,29.74,8,2,9,0.00
2013-12-1,58.3,49.2,40.3,28.4,22.0,16.8,60,35,25,29.76,29.50,6,2,6,0.00
2013-12-2,57.6,48.0,38.5,33.8,30.1,26.8,77,51,33,29.50,29.35,5,0,5,0.00
2013-12-3,60.6,53.3,39.6,49.2,41.9,33.0,85,66,47,29.44,29.35,8,1,9,0.00
2013-12-4,70.0,63.3,50.9,58.0,50.9,45.0,97,66,43,29.44,29.29,10,3,13,0.00
2013-12-5,67.6,46.3,33.3,61.3,37.9,26.8,93,73,50,29.82,29.35,13,4,15,0.58
2013-12-6,33.4,30.1,28.0,30.1,26.5,22.7,90,86,80,30.03,29.74,8,0,11,0.16
2013-12-7,29.7,25.2,20.5,22.5,15.3,10.6,80,66,54,30.18,29.97,0,0,0,0.16
2013-12-8,34.7,31.2,25.5,33.9,25.3,14.0,97,79,61,29.97,29.59,5,0,5,0.00
2013-12-9,34.9,31.6,26.8,34.1,20.9,9.3,97,66,47,29.85,29.62,8,2,8,0.00
2013-12-10,33.6,27.1,21.7,17.3,14.0,9.7,81,59,40,29.97,29.76,10,2,11,0.00
2013-12-11,39.6,28.3,19.6,23.0,13.7,2.6,81,56,39,30.15,29.88,13,3,13,0.00
2013-12-12,31.1,24.0,14.0,6.3,2.4,-3.3,57,40,23,30.18,29.88,9,2,9,0.00
2013-12-13,46.2,34.6,23.0,31.4,15.4,5.3,82,48,22,29.91,29.62,8,1,9,0.08
2013-12-14,42.4,38.0,34.2,41.2,33.8,25.8,96,85,71,29.62,29.29,10,2,12,0.59
2013-12-15,34.3,32.6,29.8,25.9,19.3,15.4,71,58,47,29.76,29.59,11,3,11,0.00
2013-12-16,46.9,40.0,34.0,31.5,26.2,23.4,72,59,40,29.71,29.59,7,2,8,0.00
2013-12-17,42.8,35.8,29.5,30.1,22.8,16.3,73,59,43,29.82,29.59,6,2,6,0.00
2013-12-18,45.0,37.1,26.2,22.1,11.9,4.4,74,39,20,29.91,29.65,10,2,10,0.00
2013-12-19,63.0,53.7,39.9,32.2,22.6,8.8,39,30,21,29.71,29.53,12,4,16,0.00
2013-12-20,63.9,59.5,54.1,57.3,46.3,24.8,88,64,29,29.56,29.41,13,4,15,0.00
2013-12-21,69.1,63.7,60.3,66.2,61.0,56.7,98,92,75,29.41,29.06,115,3,115,2.24
2013-12-22,61.7,50.3,37.2,61.1,41.4,28.6,98,72,53,29.74,29.14,12,3,17,2.24
2013-12-23,39.0,33.9,28.8,29.2,15.3,9.9,72,46,36,30.03,29.74,11,1,12,0.00
2013-12-24,28.6,23.8,19.0,11.4,1.2,-4.6,48,37,26,30.18,30.00,12,1,13,0.00
2013-12-25,42.6,33.4,20.7,16.6,9.0,3.8,54,37,23,30.06,29.82,8,2,8,0.00
2013-12-26,44.6,36.1,28.2,20.2,16.1,12.4,64,45,29,30.00,29.82,8,1,8,1.50
2013-12-27,52.0,39.3,27.9,22.5,17.8,14.0,65,44,26,30.03,29.88,8,2,8,0.00
2013-12-28,52.9,42.5,31.8,34.5,19.7,13.8,77,42,23,29.91,29.56,6,1,7,0.12
2013-12-29,49.3,40.5,32.5,42.6,31.2,21.6,89,70,49,29.74,29.44,14,2,15,0.25
2013-12-30,34.9,30.2,26.1,22.5,11.5,6.0,66,46,31,29.85,29.68,9,2,9,0.00
2013-12-31,40.5,32.2,24.6,13.7,9.4,6.7,50,39,26,30.00,29.82,7,2,7,0.00